Airfield :
LOGIN :

Register | Disclaimer

   EN    FR    IT 

 










Legend :    VFR   Marginal VFR   IFR   Intensive IFR   Very Intensive IFR
Visi :
Ceiling :
>= 8 km
>= 3000ft
5 to 8 km
1000 to 3000 ft
1500m to 5 km
500 to 1000 ft
800 to 1500m
200 to 500 ft
< 800m
< 200 ft
Symbols :   Thunderstorms  Fog  Heavy snow  Heavy precipitations  Wind > 20 kt
SIGMETs :     Misc.  Thunderstorms  Icing  Turbulence  Mountain Waves  Volcanic Ashes







- Airport Elevation : 63 ft
- IATA code : BZM


EHWO - Woensdrecht Airbase

CURRENT METAR :
  • 261029Z AUTO 23012KT 200V270 9999 FEW025 SCT029 BKN034 20/13 Q1013 BLU

EXPIRED METARs :
  • 261025Z AUTO 23012KT 200V270 9999 SCT024 BKN028 BKN032 20/13 Q1013 WHT
  • 260955Z AUTO 23010KT 190V290 9999 BKN020 OVC072 19/14 Q1013 WHT
  • 260946Z AUTO 24010KT 180V280 9999 SCT018 BKN073 OVC190 19/14 Q1013 WHT
  • 260925Z AUTO 22008KT 200V270 9999 SCT016 BKN073 BKN280 19/14 Q1014 WHT
  • 260917Z AUTO 23008KT 200V270 9999 SCT016 BKN074 OVC280 19/14 Q1014 WHT
  • 260855Z AUTO 23008KT 190V260 9999 OVC250 17/13 Q1014 BLU
  • 260825Z AUTO 22009KT 9999 FEW010 SCT061 OVC280 16/13 Q1014 BLU
  • 260755Z AUTO 22009KT 190V260 9000 BR FEW009 OVC062 14/12 Q1014 BLU

Expired Forecast.
No reported NOTAMs for that airfield.



MET'MAP, your aeronautical weather chart ! - Copyright ORBIFLY December 2007 - Disclaimer

ORBIFLY MET'MAP TEAM :

Programming & Development : Alexandra Zaïnal
Concept & Development : Baudouin d'Aumeries
Co-Development & Prog : Marc-Olivier Méhu
Technical & hardware support : Manuel Goepfert

Contact : metmap@orbifly.com




SOURCES & CREDITS :

   NOAA